Time;durP1;ratioP1;P1;durP2;ratioP2;P2;SDS_P1;SDS_P2;PMS_P1;PMS_P2;Temp;Humidity;BMP_temperature;BMP_pressure;BME280_temperature;BME280_humidity;BME280_pressure;Samples;Min_cycle;Max_cycle;Signal;HPM_P1;HPM_P2
2022/01/16 00:01:15;;;;;;;;;;;;;;;18.34;57.69;101970.25;5005049;28;1781;-36
2022/01/16 00:06:25;;;;;;;;;;;;;;;18.29;58.42;101983.97;5004511;28;1553;-35
2022/01/16 00:08:51;;;;;;;;;;;;;;;18.27;57.71;101981.38;5010817;28;1545;-36
2022/01/16 00:11:18;;;;;;;;;;;;;;;18.31;58.15;101981.19;5003306;28;1569;-35
2022/01/16 00:13:45;;;;;;;;;;;;;;;18.24;58.68;101978.03;5006127;28;1007;-36
2022/01/16 00:16:13;;;;;;;;;;;;;;;18.24;57.89;101981.59;5006615;28;1811;-35
2022/01/16 00:18:49;;;;;;;;;;;;;;;18.25;58.08;101969.06;5007888;28;1845;-35
2022/01/16 00:21:16;;;;;;;;;;;;;;;18.19;57.75;101970.31;4999312;28;1839;-35
2022/01/16 00:23:42;;;;;;;;;;;;;;;18.17;57.88;101979.44;5003494;28;1907;-35
2022/01/16 00:26:09;;;;;;;;;;;;;;;18.22;57.03;101996.91;5004063;28;1728;-36
2022/01/16 00:28:36;;;;;;;;;;;;;;;18.26;57.10;102002.91;5009068;28;1721;-35
2022/01/16 00:31:04;;;;;;;;;;;;;;;18.20;57.52;102014.00;5008288;28;1488;-34
2022/01/16 00:33:30;;;;;;;;;;;;;;;18.15;57.07;101995.56;5005455;28;1929;-37
2022/01/16 00:35:57;;;;;;;;;;;;;;;18.14;57.79;102003.69;5007683;28;1662;-36
2022/01/16 00:38:23;;;;;;;;;;;;;;;18.15;57.74;102043.75;5003223;28;1519;-36
2022/01/16 00:40:50;;;;;;;;;;;;;;;18.16;57.16;102068.72;5005823;28;2127;-35
2022/01/16 00:43:17;;;;;;;;;;;;;;;18.13;56.83;102096.56;5001924;28;1902;-35
2022/01/16 00:45:43;;;;;;;;;;;;;;;18.18;57.27;102123.88;5002987;28;1020;-35
2022/01/16 00:48:11;;;;;;;;;;;;;;;18.12;57.06;102041.28;5006266;28;1687;-35
2022/01/16 00:50:38;;;;;;;;;;;;;;;18.14;57.11;102012.59;5003629;28;1805;-35
2022/01/16 00:53:04;;;;;;;;;;;;;;;18.09;57.26;102014.72;5002952;28;1095;-35
2022/01/16 00:55:32;;;;;;;;;;;;;;;18.09;56.86;101988.81;4999626;28;1711;-34
2022/01/16 00:57:58;;;;;;;;;;;;;;;18.06;57.30;101873.03;5007764;28;1586;-36
2022/01/16 01:00:27;;;;;;;;;;;;;;;18.13;56.52;101877.03;4998572;28;1660;-36
2022/01/16 01:02:54;;;;;;;;;;;;;;;18.12;56.24;101887.84;5003471;28;1902;-35
2022/01/16 01:05:22;;;;;;;;;;;;;;;18.13;56.59;101868.16;5002619;28;1072;-35
2022/01/16 01:07:48;;;;;;;;;;;;;;;18.07;56.77;101896.19;5005370;28;1850;-34
2022/01/16 01:10:15;;;;;;;;;;;;;;;18.05;56.37;101864.16;5001395;28;1933;-34
2022/01/16 01:12:52;;;;;;;;;;;;;;;18.08;56.33;101897.88;5003008;28;1474;-35
2022/01/16 01:15:19;;;;;;;;;;;;;;;18.06;56.53;101943.50;5003643;28;1486;-36
2022/01/16 01:17:47;;;;;;;;;;;;;;;18.10;56.39;101978.94;5004228;28;1738;-35
2022/01/16 01:20:16;;;;;;;;;;;;;;;18.03;56.39;101985.66;5004992;28;1746;-34
2022/01/16 01:22:44;;;;;;;;;;;;;;;18.06;56.36;101947.97;5004221;28;1907;-34
2022/01/16 01:25:13;;;;;;;;;;;;;;;17.99;55.97;101960.06;5003296;28;1784;-36
2022/01/16 01:27:41;;;;;;;;;;;;;;;18.01;56.55;101977.72;5007013;28;1695;-38
2022/01/16 01:30:09;;;;;;;;;;;;;;;18.00;56.60;101941.22;5003590;28;1880;-35
2022/01/16 01:32:37;;;;;;;;;;;;;;;18.03;55.93;101945.53;4996104;28;1888;-36
2022/01/16 01:35:04;;;;;;;;;;;;;;;17.95;56.00;101947.84;5009083;28;1542;-34
2022/01/16 01:37:30;;;;;;;;;;;;;;;17.98;55.85;101944.94;5007692;28;1453;-34
2022/01/16 01:39:58;;;;;;;;;;;;;;;17.96;56.49;101977.16;5002050;28;2041;-37
2022/01/16 01:42:31;;;;;;;;;;;;;;;18.01;56.10;101963.50;5001070;28;1910;-35
2022/01/16 01:53:13;;;;;;;;;;;;;;;17.94;56.05;101975.56;5003267;28;1661;-35
2022/01/16 01:55:42;;;;;;;;;;;;;;;17.95;56.21;101996.88;5005845;28;1931;-36
2022/01/16 01:58:09;;;;;;;;;;;;;;;18.00;55.94;101993.88;5006547;28;1779;-35
2022/01/16 02:00:35;;;;;;;;;;;;;;;17.92;56.17;101970.28;5006254;28;1606;-36
2022/01/16 02:03:15;;;;;;;;;;;;;;;17.94;56.06;101999.63;5003374;28;1902;-34
2022/01/16 02:05:42;;;;;;;;;;;;;;;17.96;55.73;101992.38;5013795;28;1674;-35
2022/01/16 02:08:09;;;;;;;;;;;;;;;17.92;55.59;101993.53;5005198;28;997;-36
2022/01/16 02:10:36;;;;;;;;;;;;;;;17.92;55.76;101981.00;5003402;28;2016;-35
2022/01/16 02:13:06;;;;;;;;;;;;;;;17.95;55.64;102002.22;5005038;28;1741;-34
2022/01/16 02:29:49;;;;;;;;;;;;;;;17.88;55.63;102000.88;5011412;28;1615;-34
2022/01/16 02:32:40;;;;;;;;;;;;;;;17.81;55.46;101992.38;5007832;28;1843;-37
2022/01/16 02:35:06;;;;;;;;;;;;;;;17.86;55.26;102013.50;5005598;28;1701;-35
2022/01/16 02:37:32;;;;;;;;;;;;;;;17.80;55.52;102003.16;5006908;28;1704;-35
2022/01/16 02:40:07;;;;;;;;;;;;;;;17.83;55.15;101998.50;5014600;28;1590;-35
2022/01/16 02:42:38;;;;;;;;;;;;;;;17.84;54.95;101992.19;5004982;28;1989;-36
2022/01/16 02:45:07;;;;;;;;;;;;;;;17.85;55.28;101993.91;5012396;28;1586;-35
2022/01/16 02:47:33;;;;;;;;;;;;;;;17.86;55.29;101987.59;5012504;28;1725;-35
2022/01/16 02:50:01;;;;;;;;;;;;;;;17.78;55.16;101992.53;5005120;28;1744;-35
2022/01/16 02:52:27;;;;;;;;;;;;;;;17.77;55.09;102000.69;5005997;28;1851;-35
2022/01/16 02:54:55;;;;;;;;;;;;;;;17.77;54.53;101992.66;5006959;28;1031;-35
2022/01/16 02:57:23;;;;;;;;;;;;;;;17.77;54.87;101987.31;4998457;28;1939;-35
2022/01/16 02:59:51;;;;;;;;;;;;;;;17.80;54.89;102005.84;5003635;28;1916;-35
2022/01/16 03:02:22;;;;;;;;;;;;;;;17.70;55.12;102013.59;5107703;23;3794;-35
2022/01/16 03:04:49;;;;;;;;;;;;;;;17.77;55.20;102006.91;5002189;28;1961;-34
2022/01/16 03:07:18;;;;;;;;;;;;;;;17.75;54.67;101994.59;5004208;28;1924;-35
2022/01/16 03:10:14;;;;;;;;;;;;;;;17.78;54.54;101994.38;5011502;28;1940;-35
2022/01/16 03:12:45;;;;;;;;;;;;;;;17.82;54.67;102015.47;5003640;28;1588;-35
2022/01/16 03:15:16;;;;;;;;;;;;;;;17.79;54.65;102018.38;5001937;28;1532;-34
2022/01/16 03:21:53;;;;;;;;;;;;;;;17.75;54.46;102011.50;5003880;28;1513;-35
2022/01/16 03:23:27;;;;;;;;;;;;;;;17.72;54.74;102006.31;5007905;28;1967;-35
2022/01/16 03:25:54;;;;;;;;;;;;;;;17.69;55.14;102017.22;5009371;28;1245;-35
2022/01/16 03:28:22;;;;;;;;;;;;;;;17.68;54.73;102008.31;5005926;28;1408;-35
2022/01/16 03:30:50;;;;;;;;;;;;;;;17.70;54.40;102008.22;5010192;28;1137;-34
2022/01/16 03:33:17;;;;;;;;;;;;;;;17.70;54.69;102005.56;4995380;28;1828;-35
2022/01/16 03:35:45;;;;;;;;;;;;;;;17.69;54.88;102011.88;5000132;28;1626;-34
2022/01/16 03:38:11;;;;;;;;;;;;;;;17.69;54.44;102022.59;5004428;28;1741;-34
2022/01/16 03:40:40;;;;;;;;;;;;;;;17.69;54.70;102018.09;5005633;28;1436;-35
2022/01/16 03:43:13;;;;;;;;;;;;;;;17.68;54.60;102023.53;5007982;28;1972;-34
2022/01/16 03:45:44;;;;;;;;;;;;;;;17.69;54.16;102019.91;5003688;28;1518;-35
2022/01/16 03:48:12;;;;;;;;;;;;;;;17.72;54.09;102011.66;5001599;28;2047;-34
2022/01/16 03:50:40;;;;;;;;;;;;;;;17.69;54.20;102019.91;5007179;28;1830;-34
2022/01/16 03:53:07;;;;;;;;;;;;;;;17.69;54.48;102022.59;5005989;28;1481;-33
2022/01/16 03:55:42;;;;;;;;;;;;;;;17.67;53.90;102019.13;5003352;28;1131;-35
2022/01/16 03:58:11;;;;;;;;;;;;;;;17.63;54.13;102029.16;5001961;28;1745;-35
2022/01/16 04:00:51;;;;;;;;;;;;;;;17.61;54.02;102027.56;5004542;28;1596;-34
2022/01/16 04:03:21;;;;;;;;;;;;;;;17.63;53.93;102039.00;5008024;28;1967;-34
2022/01/16 04:05:47;;;;;;;;;;;;;;;17.64;54.25;102035.38;5006188;28;1926;-35
2022/01/16 04:08:17;;;;;;;;;;;;;;;17.64;54.20;102040.72;5014413;28;1850;-35
2022/01/16 04:13:25;;;;;;;;;;;;;;;17.58;54.17;102035.75;5005451;28;2379;-34
2022/01/16 04:15:52;;;;;;;;;;;;;;;17.61;54.13;102048.94;4999629;28;1824;-35
2022/01/16 04:18:24;;;;;;;;;;;;;;;17.59;54.08;102042.84;5005628;28;1513;-34
2022/01/16 04:20:54;;;;;;;;;;;;;;;17.60;53.83;102034.69;5011557;28;1841;-34
2022/01/16 04:23:29;;;;;;;;;;;;;;;17.65;53.67;102048.66;5009917;28;1963;-35
2022/01/16 04:25:59;;;;;;;;;;;;;;;17.62;53.55;102053.31;5006185;28;1427;-34
2022/01/16 04:28:28;;;;;;;;;;;;;;;17.63;53.90;102044.38;5011610;28;1557;-35
2022/01/16 04:30:54;;;;;;;;;;;;;;;17.60;54.11;102052.56;5007388;28;1526;-36
2022/01/16 04:33:28;;;;;;;;;;;;;;;17.62;53.71;102056.00;5005986;28;1674;-33
2022/01/16 04:35:56;;;;;;;;;;;;;;;17.60;53.61;102056.09;5009655;28;1700;-34
2022/01/16 04:38:23;;;;;;;;;;;;;;;17.58;53.83;102057.16;5005062;28;1565;-35
2022/01/16 04:43:50;;;;;;;;;;;;;;;17.58;53.77;102060.69;5010886;28;1915;-34
2022/01/16 04:46:29;;;;;;;;;;;;;;;17.54;53.84;102069.00;5006626;28;1473;-35
2022/01/16 04:49:02;;;;;;;;;;;;;;;17.58;53.94;102067.84;5006973;28;1844;-35
2022/01/16 04:51:32;;;;;;;;;;;;;;;17.40;54.09;102046.63;5009986;28;1712;-36
2022/01/16 04:54:01;;;;;;;;;;;;;;;17.54;53.79;102066.31;5001244;28;1495;-33
2022/01/16 04:56:29;;;;;;;;;;;;;;;17.57;53.64;102071.50;5012964;28;1952;-35
2022/01/16 04:58:57;;;;;;;;;;;;;;;17.54;53.76;102066.31;5011469;28;1939;-34
2022/01/16 05:01:25;;;;;;;;;;;;;;;17.54;53.42;102077.03;5011441;28;1475;-34
2022/01/16 05:03:56;;;;;;;;;;;;;;;17.54;54.00;102069.00;5011351;28;1914;-35
2022/01/16 05:06:26;;;;;;;;;;;;;;;17.50;53.62;102053.13;5005360;28;1625;-34
2022/01/16 05:11:38;;;;;;;;;;;;;;;17.55;54.54;102073.38;5010445;28;2442;-37
2022/01/16 05:16:57;;;;;;;;;;;;;;;17.49;53.42;102079.97;5008289;28;1604;-34
2022/01/16 05:19:24;;;;;;;;;;;;;;;17.50;53.41;102073.66;5009471;28;1975;-35
2022/01/16 05:21:57;;;;;;;;;;;;;;;17.53;53.34;102083.31;5003120;28;1959;-35
2022/01/16 05:24:34;;;;;;;;;;;;;;;17.53;53.26;102076.16;5003125;28;2098;-34
2022/01/16 05:27:01;;;;;;;;;;;;;;;17.49;53.69;102078.16;5003196;28;1960;-34
2022/01/16 05:29:30;;;;;;;;;;;;;;;17.52;53.68;102078.94;5011799;28;1663;-36
2022/01/16 05:31:58;;;;;;;;;;;;;;;17.48;53.14;102067.56;5017257;28;1919;-35
2022/01/16 05:34:26;;;;;;;;;;;;;;;17.48;53.64;102064.88;5014854;28;1573;-35
2022/01/16 05:36:58;;;;;;;;;;;;;;;17.49;53.32;102074.63;5014387;28;1991;-34
2022/01/16 05:39:34;;;;;;;;;;;;;;;17.46;53.12;102064.13;5012496;28;1913;-34
2022/01/16 05:42:01;;;;;;;;;;;;;;;17.46;53.83;102066.78;5011096;28;1609;-35
2022/01/16 05:44:27;;;;;;;;;;;;;;;17.45;53.30;102063.25;5005584;28;1918;-36
2022/01/16 05:47:02;;;;;;;;;;;;;;;17.42;53.32;102074.13;5012333;28;1574;-35
2022/01/16 05:49:31;;;;;;;;;;;;;;;17.40;53.44;102093.91;5014434;28;1754;-34
2022/01/16 05:52:03;;;;;;;;;;;;;;;17.47;53.26;102090.78;5012942;28;1574;-35
2022/01/16 05:54:31;;;;;;;;;;;;;;;17.44;52.95;102095.44;5015322;28;1902;-36
2022/01/16 05:57:00;;;;;;;;;;;;;;;17.43;53.44;102085.72;5005808;28;1608;-34
2022/01/16 05:59:30;;;;;;;;;;;;;;;17.41;53.04;102076.91;5005078;28;1805;-34
2022/01/16 06:01:58;;;;;;;;;;;;;;;17.41;53.17;102092.97;5009020;28;1507;-35
2022/01/16 06:04:25;;;;;;;;;;;;;;;17.45;53.04;102094.50;5013714;28;1906;-38
2022/01/16 06:06:54;;;;;;;;;;;;;;;17.46;53.06;102110.44;4998353;28;1940;-35
2022/01/16 06:09:26;;;;;;;;;;;;;;;17.43;53.59;102104.44;5012650;28;1901;-34
2022/01/16 06:11:54;;;;;;;;;;;;;;;17.40;53.06;102102.78;5014731;28;1554;-35
2022/01/16 06:14:25;;;;;;;;;;;;;;;17.37;52.66;102111.00;5013801;28;1706;-34
2022/01/16 06:16:52;;;;;;;;;;;;;;;17.39;53.04;102121.56;5012703;28;1731;-35
2022/01/16 06:19:19;;;;;;;;;;;;;;;17.45;52.78;102114.06;5003881;28;1511;-34
2022/01/16 06:21:50;;;;;;;;;;;;;;;17.41;52.94;102106.34;5005604;28;1564;-35
2022/01/16 06:24:18;;;;;;;;;;;;;;;17.44;52.55;102112.34;5013836;28;1981;-34
2022/01/16 06:26:49;;;;;;;;;;;;;;;17.43;52.92;102123.16;5012078;28;1540;-34
2022/01/16 06:29:15;;;;;;;;;;;;;;;17.38;52.86;102110.03;5005008;28;1971;-34
2022/01/16 06:31:44;;;;;;;;;;;;;;;17.41;52.96;102119.72;5007718;28;1776;-34
2022/01/16 06:34:10;;;;;;;;;;;;;;;17.42;52.79;102116.91;5014199;28;1772;-35
2022/01/16 06:36:38;;;;;;;;;;;;;;;17.42;52.57;102116.06;4999833;28;1436;-34
2022/01/16 06:39:10;;;;;;;;;;;;;;;17.48;52.74;102124.56;5004749;28;1628;-34
2022/01/16 06:41:38;;;;;;;;;;;;;;;17.46;52.67;102123.81;5008093;28;1726;-35
2022/01/16 06:44:08;;;;;;;;;;;;;;;17.46;52.67;102145.19;5007783;28;1935;-36
2022/01/16 06:46:35;;;;;;;;;;;;;;;17.48;52.85;102145.97;5015559;28;1560;-34
2022/01/16 06:54:32;;;;;;;;;;;;;;;17.44;52.78;102133.72;5004000;28;2479;-35
2022/01/16 06:57:01;;;;;;;;;;;;;;;17.46;53.12;102145.19;5009311;28;1561;-34
2022/01/16 06:59:33;;;;;;;;;;;;;;;17.51;52.89;102158.31;5014952;28;1952;-35
2022/01/16 07:01:59;;;;;;;;;;;;;;;17.48;52.85;102147.78;5007028;28;1936;-40
2022/01/16 07:04:29;;;;;;;;;;;;;;;17.47;52.70;102149.59;5011145;28;1902;-34
2022/01/16 07:06:55;;;;;;;;;;;;;;;17.42;53.08;102132.09;5012579;28;1796;-35
2022/01/16 07:09:24;;;;;;;;;;;;;;;17.44;53.08;102144.44;5005079;28;2003;-35
2022/01/16 07:11:53;;;;;;;;;;;;;;;17.60;52.82;102141.69;5008870;28;1733;-34
2022/01/16 07:14:22;;;;;;;;;;;;;;;17.98;53.08;102134.97;5008423;28;1442;-34
2022/01/16 07:17:02;;;;;;;;;;;;;;;18.59;52.82;102146.31;4987476;28;10771;-34
2022/01/16 07:19:31;;;;;;;;;;;;;;;18.88;52.13;102157.84;5034548;28;1449;-35
2022/01/16 07:22:01;;;;;;;;;;;;;;;19.13;52.81;102151.69;5030636;28;1875;-35
2022/01/16 07:24:30;;;;;;;;;;;;;;;19.24;51.58;102156.38;5030445;28;1973;-35
2022/01/16 07:27:00;;;;;;;;;;;;;;;19.26;52.74;102162.47;5033163;28;1605;-34
2022/01/16 07:29:26;;;;;;;;;;;;;;;19.31;54.84;102164.84;5025508;28;1476;-34
2022/01/16 07:31:56;;;;;;;;;;;;;;;19.36;55.18;102165.38;5032296;28;1509;-34
2022/01/16 07:34:31;;;;;;;;;;;;;;;19.37;54.87;102151.88;5020055;28;1664;-34
2022/01/16 07:36:59;;;;;;;;;;;;;;;19.61;53.09;102152.00;5030493;28;1795;-34
2022/01/16 07:39:26;;;;;;;;;;;;;;;19.67;54.55;102140.00;5027812;28;1531;-35
2022/01/16 07:41:55;;;;;;;;;;;;;;;19.68;54.35;102149.78;5025330;28;1841;-34
2022/01/16 07:44:24;;;;;;;;;;;;;;;19.79;54.63;102141.00;5030101;28;1910;-34
2022/01/16 07:46:59;;;;;;;;;;;;;;;19.69;54.98;102148.78;5034170;28;1957;-35
2022/01/16 07:49:28;;;;;;;;;;;;;;;19.80;56.39;102156.16;5026006;28;1587;-34
2022/01/16 07:51:58;;;;;;;;;;;;;;;19.94;55.73;102152.50;5027524;28;1560;-33
2022/01/16 07:54:25;;;;;;;;;;;;;;;19.89;56.05;102138.53;5018139;28;1501;-35
2022/01/16 07:56:54;;;;;;;;;;;;;;;19.83;56.53;102148.72;5033440;28;1697;-35
2022/01/16 07:59:21;;;;;;;;;;;;;;;19.82;57.22;102151.53;5026409;28;1446;-34
2022/01/16 08:01:47;;;;;;;;;;;;;;;19.77;56.13;102148.31;5029771;28;1681;-35
2022/01/16 08:04:27;;;;;;;;;;;;;;;19.72;56.74;102150.47;5024966;28;1910;-36
2022/01/16 08:06:57;;;;;;;;;;;;;;;19.67;57.15;102150.72;5022291;28;2115;-36
2022/01/16 08:09:23;;;;;;;;;;;;;;;19.69;57.63;102170.25;5027560;28;1641;-36
2022/01/16 08:11:51;;;;;;;;;;;;;;;19.62;56.77;102163.63;5029039;28;1817;-37
2022/01/16 08:14:17;;;;;;;;;;;;;;;19.60;56.84;102160.19;5026954;28;2361;-35
2022/01/16 08:16:45;;;;;;;;;;;;;;;19.52;57.50;102146.41;5026371;28;1595;-35
2022/01/16 08:19:15;;;;;;;;;;;;;;;19.48;57.59;102160.06;5022710;28;1771;-35
2022/01/16 08:21:47;;;;;;;;;;;;;;;19.49;56.74;102155.53;5028737;28;1802;-35
2022/01/16 08:24:14;;;;;;;;;;;;;;;19.38;57.84;102140.19;5027348;28;1910;-36
2022/01/16 08:26:44;;;;;;;;;;;;;;;19.26;56.73;102127.63;5025409;28;1869;-35
2022/01/16 08:29:13;;;;;;;;;;;;;;;19.48;57.31;102135.06;5031710;28;1861;-36
2022/01/16 08:31:43;;;;;;;;;;;;;;;19.53;56.51;102132.91;5030980;28;1932;-35
2022/01/16 08:34:19;;;;;;;;;;;;;;;19.50;57.12;102133.13;5027934;28;1990;-36
2022/01/16 08:36:49;;;;;;;;;;;;;;;19.51;56.96;102136.66;5030086;28;1789;-36
2022/01/16 08:39:17;;;;;;;;;;;;;;;19.40;57.12;102137.41;5023483;28;1554;-37
2022/01/16 08:41:47;;;;;;;;;;;;;;;19.31;57.81;102130.81;5025816;28;2057;-36
2022/01/16 08:44:13;;;;;;;;;;;;;;;19.28;58.54;102123.84;5032085;28;1910;-37
2022/01/16 08:46:42;;;;;;;;;;;;;;;19.32;57.67;102135.25;5032531;28;1821;-36
2022/01/16 08:49:13;;;;;;;;;;;;;;;19.22;57.96;102129.63;5029237;28;1619;-37
2022/01/16 08:51:42;;;;;;;;;;;;;;;19.25;57.79;102117.84;5029610;28;1980;-36
2022/01/16 08:54:12;;;;;;;;;;;;;;;19.25;58.77;102120.53;5030566;28;1480;-35
2022/01/16 08:56:41;;;;;;;;;;;;;;;19.23;58.65;102114.41;5023507;28;1735;-37
2022/01/16 08:59:09;;;;;;;;;;;;;;;19.28;57.75;102104.22;5020696;28;1783;-35
2022/01/16 09:01:37;;;;;;;;;;;;;;;19.28;58.71;102106.91;5027283;28;1593;-35
2022/01/16 09:04:03;;;;;;;;;;;;;;;19.48;59.12;102114.44;5029415;28;2023;-35
2022/01/16 09:06:34;;;;;;;;;;;;;;;19.35;59.34;102096.63;5036534;28;1968;-36
2022/01/16 09:09:01;;;;;;;;;;;;;;;19.37;58.46;102095.53;5034949;28;1579;-35
2022/01/16 09:11:29;;;;;;;;;;;;;;;19.31;60.09;102095.97;5026645;28;1721;-37
2022/01/16 09:13:58;;;;;;;;;;;;;;;19.32;59.46;102097.69;5027782;28;1803;-35
2022/01/16 09:16:24;;;;;;;;;;;;;;;19.25;59.48;102091.03;5028183;28;1481;-37
2022/01/16 09:18:51;;;;;;;;;;;;;;;19.23;59.47;102076.84;5028222;28;1632;-36
2022/01/16 09:21:18;;;;;;;;;;;;;;;19.21;59.67;102068.91;5029432;28;1577;-35
2022/01/16 09:23:45;;;;;;;;;;;;;;;19.24;60.03;102089.31;5028290;28;1591;-35
2022/01/16 09:26:11;;;;;;;;;;;;;;;19.26;58.78;102079.34;5031278;28;1910;-35
2022/01/16 09:28:39;;;;;;;;;;;;;;;19.23;59.26;102076.84;5029110;28;1935;-36
2022/01/16 09:31:06;;;;;;;;;;;;;;;19.19;60.08;102067.31;5026424;28;1557;-35
2022/01/16 09:33:32;;;;;;;;;;;;;;;19.27;60.11;102086.41;5029324;28;1579;-36
2022/01/16 09:35:59;;;;;;;;;;;;;;;19.22;61.02;102078.69;5028682;28;1775;-36
2022/01/16 09:38:25;;;;;;;;;;;;;;;19.29;60.60;102073.75;5027857;28;1520;-36
2022/01/16 09:40:52;;;;;;;;;;;;;;;19.21;60.54;102063.53;5030966;28;1625;-36
2022/01/16 09:43:19;;;;;;;;;;;;;;;19.21;59.74;102081.47;5023443;28;1512;-34
2022/01/16 09:45:48;;;;;;;;;;;;;;;19.21;61.12;102073.41;5033059;28;1910;-34
2022/01/16 09:48:15;;;;;;;;;;;;;;;19.26;60.65;102065.94;5024006;28;1884;-35
2022/01/16 09:50:42;;;;;;;;;;;;;;;19.27;60.32;102067.63;5024232;28;1631;-35
2022/01/16 09:53:08;;;;;;;;;;;;;;;19.25;60.70;102070.41;5031558;28;1746;-34
2022/01/16 09:55:35;;;;;;;;;;;;;;;19.16;61.49;102070.19;5029899;28;1532;-34
2022/01/16 09:58:01;;;;;;;;;;;;;;;19.14;61.00;102051.53;5029796;28;1593;-36
2022/01/16 10:00:28;;;;;;;;;;;;;;;19.21;60.54;102057.34;5024093;28;1759;-35
2022/01/16 10:02:56;;;;;;;;;;;;;;;19.30;59.69;102066.56;5031020;28;1739;-36
2022/01/16 10:05:24;;;;;;;;;;;;;;;19.22;60.25;102049.19;5031762;28;1977;-34
2022/01/16 10:07:50;;;;;;;;;;;;;;;19.18;62.00;102057.53;5032331;28;1476;-34
2022/01/16 10:10:17;;;;;;;;;;;;;;;19.16;61.65;102054.09;5023390;28;1790;-35
2022/01/16 10:12:49;;;;;;;;;;;;;;;19.13;60.40;102051.63;5025923;28;1742;-34
2022/01/16 10:15:21;;;;;;;;;;;;;;;19.22;61.96;102061.75;5026350;28;1617;-35
2022/01/16 10:17:53;;;;;;;;;;;;;;;18.97;61.61;102060.72;5029225;28;1539;-34
2022/01/16 10:20:21;;;;;;;;;;;;;;;19.05;61.23;102057.53;5017546;28;1513;-36
2022/01/16 10:22:48;;;;;;;;;;;;;;;18.95;61.86;102041.19;5028487;28;1580;-35
2022/01/16 10:25:16;;;;;;;;;;;;;;;18.93;61.35;102040.44;5025962;28;1910;-33
2022/01/16 10:27:44;;;;;;;;;;;;;;;18.92;61.49;102030.69;5028703;28;1590;-35
2022/01/16 10:30:14;;;;;;;;;;;;;;;18.96;61.25;102039.38;5024402;28;1482;-34
2022/01/16 10:32:41;;;;;;;;;;;;;;;19.06;60.24;102033.28;5030330;28;1629;-34
2022/01/16 10:35:08;;;;;;;;;;;;;;;19.18;60.40;102033.41;5030880;28;1417;-34
2022/01/16 10:37:37;;;;;;;;;;;;;;;19.20;59.92;102024.31;5027366;28;1805;-35
2022/01/16 10:40:05;;;;;;;;;;;;;;;19.28;59.06;102024.63;5027696;28;1749;-34
2022/01/16 10:42:32;;;;;;;;;;;;;;;19.30;58.79;102021.84;5030984;28;1784;-34
2022/01/16 10:45:00;;;;;;;;;;;;;;;19.33;58.57;102018.94;5023755;28;1910;-35
2022/01/16 10:47:28;;;;;;;;;;;;;;;19.35;58.48;102016.16;5031767;28;1668;-35
2022/01/16 10:49:59;;;;;;;;;;;;;;;19.31;59.07;102011.97;5029145;28;1764;-34
2022/01/16 10:52:26;;;;;;;;;;;;;;;19.30;57.95;102005.75;5034276;28;1727;-34
2022/01/16 10:54:53;;;;;;;;;;;;;;;19.30;57.59;101992.34;5025050;28;1539;-34
2022/01/16 10:57:21;;;;;;;;;;;;;;;19.31;57.93;101994.03;5030502;28;1552;-34
2022/01/16 10:59:48;;;;;;;;;;;;;;;19.25;58.79;101992.63;5023287;28;1561;-34
2022/01/16 11:02:14;;;;;;;;;;;;;;;19.30;57.70;101996.81;5030434;28;1775;-35
2022/01/16 11:04:41;;;;;;;;;;;;;;;19.26;57.57;101996.19;5026936;28;1552;-36
2022/01/16 11:07:07;;;;;;;;;;;;;;;19.26;57.72;101990.84;5025915;28;1902;-33
2022/01/16 11:09:34;;;;;;;;;;;;;;;19.24;57.87;101979.38;5032231;28;1702;-35
2022/01/16 11:12:02;;;;;;;;;;;;;;;19.19;57.51;101987.72;5026834;28;1434;-34
2022/01/16 11:14:29;;;;;;;;;;;;;;;19.18;57.50;101995.84;5022007;28;1899;-34
2022/01/16 11:16:56;;;;;;;;;;;;;;;19.16;57.10;101995.97;5029001;28;1434;-34
2022/01/16 11:19:24;;;;;;;;;;;;;;;19.08;57.06;101982.25;5026138;28;1610;-35
2022/01/16 11:21:56;;;;;;;;;;;;;;;19.15;56.53;101988.88;5029353;28;1683;-34
2022/01/16 11:24:33;;;;;;;;;;;;;;;19.26;55.53;101967.56;5023157;28;1670;-35
2022/01/16 11:27:00;;;;;;;;;;;;;;;19.38;55.19;101968.50;5030483;28;1902;-34
2022/01/16 11:29:29;;;;;;;;;;;;;;;19.41;56.25;101952.19;5027338;28;1636;-34
2022/01/16 11:31:58;;;;;;;;;;;;;;;19.42;56.37;101959.28;5029042;28;1605;-34
2022/01/16 11:34:28;;;;;;;;;;;;;;;19.47;56.43;101956.25;5025169;28;1490;-34
2022/01/16 11:36:54;;;;;;;;;;;;;;;19.56;57.03;101957.44;5030921;28;1456;-35
2022/01/16 11:39:23;;;;;;;;;;;;;;;19.63;56.88;101961.38;5030887;28;1489;-36
2022/01/16 11:41:52;;;;;;;;;;;;;;;19.60;56.05;101954.41;5026730;28;1640;-37
2022/01/16 11:44:22;;;;;;;;;;;;;;;19.65;57.43;101956.75;5027218;28;1576;-37
2022/01/16 11:46:51;;;;;;;;;;;;;;;19.57;57.30;101943.03;5029234;28;1906;-38
2022/01/16 11:49:19;;;;;;;;;;;;;;;19.58;57.11;101958.19;5023592;28;1464;-39
2022/01/16 11:52:05;;;;;;;;;;;;;;;19.61;57.18;101947.22;5027759;28;1575;-40
2022/01/16 11:54:33;;;;;;;;;;;;;;;19.53;57.52;101930.81;5028009;28;1542;-40
2022/01/16 11:57:00;;;;;;;;;;;;;;;19.46;58.00;101936.63;5029254;28;1555;-39
2022/01/16 11:59:28;;;;;;;;;;;;;;;19.57;57.44;101945.72;5029221;28;1597;-33
2022/01/16 12:01:57;;;;;;;;;;;;;;;19.57;57.96;101941.22;5025472;28;1484;-32
2022/01/16 12:04:38;;;;;;;;;;;;;;;19.52;58.56;101943.38;5027718;28;1937;-32
2022/01/16 12:07:27;;;;;;;;;;;;;;;19.56;57.93;101938.66;5026860;28;2248;-32
2022/01/16 12:09:57;;;;;;;;;;;;;;;19.66;57.30;101939.72;5027955;28;2284;-32
2022/01/16 12:12:35;;;;;;;;;;;;;;;19.59;58.26;101925.00;5019467;28;1495;-33
2022/01/16 12:15:03;;;;;;;;;;;;;;;19.55;58.51;101934.25;5028123;28;1590;-33
2022/01/16 12:17:31;;;;;;;;;;;;;;;19.53;59.00;101928.13;5026323;28;1585;-33
2022/01/16 12:19:58;;;;;;;;;;;;;;;19.51;58.29;101941.66;5027210;28;1515;-33
2022/01/16 12:22:41;;;;;;;;;;;;;;;19.47;59.72;101932.97;5027541;28;1642;-32
2022/01/16 12:25:09;;;;;;;;;;;;;;;19.45;58.90;101921.47;5025920;28;1865;-33
2022/01/16 12:27:44;;;;;;;;;;;;;;;19.43;58.69;101925.25;5024045;28;1973;-33
2022/01/16 12:30:22;;;;;;;;;;;;;;;19.41;59.32;101937.91;5023383;28;1699;-32
2022/01/16 12:32:50;;;;;;;;;;;;;;;19.43;58.93;101930.63;5026679;28;1426;-33
2022/01/16 12:35:32;;;;;;;;;;;;;;;19.44;59.15;101922.47;5028925;28;1500;-34
2022/01/16 12:38:05;;;;;;;;;;;;;;;19.51;59.33;101930.91;5014029;28;1561;-33
2022/01/16 12:40:44;;;;;;;;;;;;;;;19.47;59.66;101935.66;5020381;28;1652;-33
2022/01/16 12:43:16;;;;;;;;;;;;;;;19.50;58.79;101931.03;5028968;28;1787;-32
2022/01/16 12:46:04;;;;;;;;;;;;;;;19.46;59.53;101930.41;5029235;28;1902;-32
2022/01/16 12:48:39;;;;;;;;;;;;;;;19.44;59.54;101929.66;5031410;28;2022;-32
2022/01/16 12:51:09;;;;;;;;;;;;;;;19.43;58.92;101912.69;5031059;28;1639;-32
2022/01/16 12:53:41;;;;;;;;;;;;;;;19.44;58.70;101924.31;5024106;28;1608;-32
2022/01/16 12:56:21;;;;;;;;;;;;;;;19.45;58.35;101921.47;5018640;28;1818;-32
2022/01/16 12:58:48;;;;;;;;;;;;;;;19.37;59.60;101921.19;5024901;28;1901;-32
2022/01/16 13:01:15;;;;;;;;;;;;;;;19.33;59.10;101917.00;5027512;28;2025;-33
2022/01/16 13:03:46;;;;;;;;;;;;;;;19.34;59.54;101908.00;5018224;28;1792;-32
2022/01/16 13:06:20;;;;;;;;;;;;;;;19.37;57.50;101909.59;5024363;28;1906;-33
2022/01/16 13:09:09;;;;;;;;;;;;;;;19.37;57.84;101893.50;5021278;28;1354;-33
2022/01/16 13:11:36;;;;;;;;;;;;;;;19.33;58.02;101894.69;5028154;28;1696;-33
2022/01/16 13:14:04;;;;;;;;;;;;;;;19.40;58.45;101896.00;5026951;28;1586;-33
2022/01/16 13:16:31;;;;;;;;;;;;;;;19.32;57.67;101898.34;5029861;28;1476;-33
2022/01/16 13:19:11;;;;;;;;;;;;;;;19.25;58.72;101895.25;5028638;28;1537;-33
2022/01/16 13:21:42;;;;;;;;;;;;;;;19.21;59.65;101902.66;5025530;28;1540;-33
2022/01/16 13:24:09;;;;;;;;;;;;;;;19.18;58.27;101908.25;5025034;28;1591;-33
2022/01/16 13:26:37;;;;;;;;;;;;;;;19.21;55.75;101891.91;5029569;28;1977;-33
2022/01/16 13:29:04;;;;;;;;;;;;;;;19.13;59.45;101909.53;5029534;28;1878;-33
2022/01/16 13:31:34;;;;;;;;;;;;;;;19.01;58.17;101893.34;5031922;28;1545;-33
2022/01/16 13:34:14;;;;;;;;;;;;;;;19.09;58.83;101898.16;5020823;28;1648;-32
2022/01/16 13:36:50;;;;;;;;;;;;;;;19.13;59.01;101896.97;5026548;28;1605;-32
2022/01/16 13:39:21;;;;;;;;;;;;;;;19.11;60.02;101877.47;5030526;28;1712;-32
2022/01/16 13:42:04;;;;;;;;;;;;;;;19.03;59.15;101888.72;5022905;28;1481;-32
2022/01/16 13:44:31;;;;;;;;;;;;;;;18.93;59.40;101881.44;5022162;28;1846;-32